Flight Sim Network - KMZJ Airport Info

    KMZJ (Pinal Airpark)  Login to use Map Selector
   

  RUNWAY INFORMATION    |    Airport Elevation : 1893ft    |    LAT : 32.5106010437  /  LON : -111.32800293
Runway Number 08 / 26 Runway Width 150' Runway Length 6690'
Lighted Runway No Runway StatusCLOSED Runway Surface Asphalt
Runway Number 12 / 30 Runway Width 150' Runway Length 6849'
Lighted Runway Yes Runway StatusOpen Runway Surface Asphalt
  CLOSE ALTERNATE AIRPORTS
ICAODistanceAirport NameLongest RWRW SurfaceMAP
AZ676NMEl Tiro Gliderport5120FTGrass
KAVQ8NMMarana Regional Airport6903FTAsphalt
0AZ113NMTaylor Field3250FTGrass
4AZ013NMPalm Valley Tucson Airport4000FTGrass
20AZ14NMEds Field4700FTGrass
17AZ15NMNewman Peak Ranch4000FTGrass
57AZ17NMLa Cholla Airpark4500FTAsphalt
E6022NMEloy Mun3900FTAsphalt
KRYN23NMRyan Field5500FTAsphalt
1AZ925NMBiosphere 2 Landing Field4250FTGrass
  AIRPORT WEATHER
98°F | 37°C
Temperature
27%
Humidity
29" | 0mb
Pressure
10sm
Visibility
VFR
Flight Rules
CLR
Initial Clouds
FAIR
Conditions
Wind Info
7/23/24 17:55Z
Updated

KMZJ 231755Z AUTO VRB03G11KT 10SM CLR 37/15 A2997 RMK AO2
  AIRPORT FREQUENCIES
NameFrequency
UNICOM123.050
MULTICOM123.050

Powered by Virtual Airlines Manager